Time,TemperatureF,DewpointF,PressureIn,WindDirection,WindDirectionDegrees,WindSpeedMPH,WindSpeedGustMPH,Humidity,HourlyPrecipIn,Conditions,Clouds,dailyrainin,SolarRadiationWatts/m^2,SoftwareType,DateUTC
2013-04-17 00:00:00,55.4,28.2,30.13,NW,310,4.0,5.0,35,0.00,,,0.00,0,Wunderground v.1.15,2013-04-17 07:00:00,
2013-04-17 00:05:00,54.6,28.2,30.13,NNW,338,3.0,5.0,36,0.00,,,0.00,0,Wunderground v.1.15,2013-04-17 07:05:00,
2013-04-17 00:10:00,54.2,27.8,30.13,NW,324,3.0,7.0,36,0.00,,,0.00,0,Wunderground v.1.15,2013-04-17 07:10:00,
2013-04-17 00:15:00,53.7,28.7,30.14,NW,305,4.0,7.0,38,0.00,,,0.00,0,Wunderground v.1.15,2013-04-17 07:15:00,
2013-04-17 00:20:00,53.0,28.7,30.14,NW,315,4.0,4.0,39,0.00,,,0.00,0,Wunderground v.1.15,2013-04-17 07:20:00,
2013-04-17 00:25:00,52.5,29.5,30.14,NNW,330,4.0,6.0,41,0.00,,,0.00,0,Wunderground v.1.15,2013-04-17 07:25:00,
2013-04-17 00:30:00,52.3,29.9,30.14,NW,326,5.0,6.0,42,0.00,,,0.00,0,Wunderground v.1.15,2013-04-17 07:30:00,
2013-04-17 00:35:00,52.3,29.9,30.14,NW,307,5.0,9.0,42,0.00,,,0.00,0,Wunderground v.1.15,2013-04-17 07:35:00,
2013-04-17 00:40:00,52.1,29.7,30.14,NW,306,5.0,6.0,42,0.00,,,0.00,0,Wunderground v.1.15,2013-04-17 07:40:00,
2013-04-17 00:45:00,51.9,30.1,30.14,NW,321,5.0,10.0,43,0.00,,,0.00,0,Wunderground v.1.15,2013-04-17 07:45:00,
2013-04-17 00:50:00,52.0,30.2,30.15,NW,324,5.0,5.0,43,0.00,,,0.00,0,Wunderground v.1.15,2013-04-17 07:50:00,
2013-04-17 00:55:00,51.9,30.1,30.15,NW,315,4.0,5.0,43,0.00,,,0.00,0,Wunderground v.1.15,2013-04-17 07:55:00,
2013-04-17 01:00:00,51.9,30.1,30.15,NNW,330,4.0,5.0,43,0.00,,,0.00,0,Wunderground v.1.15,2013-04-17 08:00:00,
2013-04-17 01:05:00,51.8,30.0,30.15,NNW,345,6.0,7.0,43,0.00,,,0.00,0,Wunderground v.1.15,2013-04-17 08:05:00,
2013-04-17 01:10:00,51.9,30.1,30.15,NNW,342,7.0,7.0,43,0.00,,,0.00,0,Wunderground v.1.15,2013-04-17 08:10:00,
2013-04-17 01:15:00,51.9,30.1,30.15,NNW,331,7.0,12.0,43,0.00,,,0.00,0,Wunderground v.1.15,2013-04-17 08:15:00,
2013-04-17 01:20:00,52.0,30.2,30.15,NW,315,7.0,8.0,43,0.00,,,0.00,0,Wunderground v.1.15,2013-04-17 08:20:00,
2013-04-17 01:25:00,52.1,30.3,30.15,North,355,7.0,8.0,43,0.00,,,0.00,0,Wunderground v.1.15,2013-04-17 08:25:00,
2013-04-17 01:30:00,52.2,30.4,30.15,NNW,348,7.0,8.0,43,0.00,,,0.00,0,Wunderground v.1.15,2013-04-17 08:30:00,
2013-04-17 01:35:00,52.2,30.4,30.15,NW,319,8.0,8.0,43,0.00,,,0.00,0,Wunderground v.1.15,2013-04-17 08:35:00,
2013-04-17 01:40:00,52.2,30.4,30.15,NNW,334,7.0,7.0,43,0.00,,,0.00,0,Wunderground v.1.15,2013-04-17 08:40:00,
2013-04-17 01:45:00,52.2,30.9,30.15,NNW,335,7.0,8.0,44,0.00,,,0.00,0,Wunderground v.1.15,2013-04-17 08:45:00,
2013-04-17 01:50:00,52.1,30.8,30.15,NW,321,7.0,7.0,44,0.00,,,0.00,0,Wunderground v.1.15,2013-04-17 08:50:00,
2013-04-17 01:55:00,51.9,30.6,30.15,NNW,328,6.0,7.0,44,0.00,,,0.00,0,Wunderground v.1.15,2013-04-17 08:55:00,
2013-04-17 02:00:00,51.7,31.0,30.15,North,349,6.0,13.0,45,0.00,,,0.00,0,Wunderground v.1.15,2013-04-17 09:00:00,
2013-04-17 02:05:00,51.5,30.8,30.15,NNW,335,6.0,13.0,45,0.00,,,0.00,0,Wunderground v.1.15,2013-04-17 09:05:00,
2013-04-17 02:10:00,51.3,31.2,30.15,North,9,6.0,6.0,46,0.00,,,0.00,0,Wunderground v.1.15,2013-04-17 09:10:00,
2013-04-17 02:15:00,51.2,31.6,30.15,North,349,6.0,8.0,47,0.00,,,0.00,0,Wunderground v.1.15,2013-04-17 09:15:00,
2013-04-17 02:20:00,51.0,30.9,30.15,NNW,348,6.0,14.0,46,0.00,,,0.00,0,Wunderground v.1.15,2013-04-17 09:20:00,
2013-04-17 02:30:00,50.7,31.2,30.15,North,5,7.0,8.0,47,0.00,,,0.00,0,Wunderground v.1.15,2013-04-17 09:30:00,
2013-04-17 02:35:00,50.6,31.1,30.15,North,349,6.0,8.0,47,0.00,,,0.00,0,Wunderground v.1.15,2013-04-17 09:35:00,
2013-04-17 02:40:00,50.4,31.4,30.15,North,9,6.0,9.0,48,0.00,,,0.00,0,Wunderground v.1.15,2013-04-17 09:40:00,
2013-04-17 02:45:00,50.4,31.4,30.15,NW,321,7.0,9.0,48,0.00,,,0.00,0,Wunderground v.1.15,2013-04-17 09:45:00,
2013-04-17 02:50:00,50.4,31.4,30.15,NNW,340,6.0,6.0,48,0.00,,,0.00,0,Wunderground v.1.15,2013-04-17 09:50:00,
2013-04-17 02:55:00,50.3,31.3,30.15,North,9,5.0,6.0,48,0.00,,,0.00,0,Wunderground v.1.15,2013-04-17 09:55:00,
2013-04-17 03:00:00,50.1,31.2,30.15,NNW,327,5.0,7.0,48,0.00,,,0.00,0,Wunderground v.1.15,2013-04-17 10:00:00,
2013-04-17 03:05:00,50.1,31.7,30.15,North,355,6.0,7.0,49,0.00,,,0.00,0,Wunderground v.1.15,2013-04-17 10:05:00,
2013-04-17 03:10:00,49.9,31.5,30.15,NNW,344,6.0,6.0,49,0.00,,,0.00,0,Wunderground v.1.15,2013-04-17 10:10:00,
2013-04-17 03:15:00,49.9,31.5,30.15,NW,325,5.0,6.0,49,0.00,,,0.00,0,Wunderground v.1.15,2013-04-17 10:15:00,
2013-04-17 03:20:00,49.9,31.5,30.15,North,355,5.0,5.0,49,0.00,,,0.00,0,Wunderground v.1.15,2013-04-17 10:20:00,
2013-04-17 03:25:00,49.9,32.0,30.15,NNW,345,6.0,6.0,50,0.00,,,0.00,0,Wunderground v.1.15,2013-04-17 10:25:00,
2013-04-17 03:30:00,49.9,31.5,30.15,North,5,6.0,6.0,49,0.00,,,0.00,0,Wunderground v.1.15,2013-04-17 10:30:00,
2013-04-17 03:35:00,50.0,31.6,30.15,NNW,347,7.0,9.0,49,0.00,,,0.00,0,Wunderground v.1.15,2013-04-17 10:35:00,
2013-04-17 03:40:00,50.1,31.2,30.15,NNW,335,7.0,7.0,48,0.00,,,0.00,0,Wunderground v.1.15,2013-04-17 10:40:00,
2013-04-17 03:45:00,50.1,31.2,30.15,North,5,7.0,7.0,48,0.00,,,0.00,0,Wunderground v.1.15,2013-04-17 10:45:00,
2013-04-17 03:50:00,50.2,31.2,30.15,North,360,7.0,7.0,48,0.00,,,0.00,0,Wunderground v.1.15,2013-04-17 10:50:00,
2013-04-17 03:55:00,50.0,31.1,30.15,NNW,342,7.0,7.0,48,0.00,,,0.00,0,Wunderground v.1.15,2013-04-17 10:55:00,
2013-04-17 04:00:00,49.8,31.4,30.15,NNW,345,7.0,7.0,49,0.00,,,0.00,0,Wunderground v.1.15,2013-04-17 11:00:00,
2013-04-17 04:05:00,49.5,31.6,30.16,North,355,7.0,11.0,50,0.00,,,0.00,0,Wunderground v.1.15,2013-04-17 11:05:00,
2013-04-17 04:10:00,49.4,31.5,30.16,NNE,19,8.0,8.0,50,0.00,,,0.00,0,Wunderground v.1.15,2013-04-17 11:10:00,
2013-04-17 04:15:00,49.2,31.8,30.15,NNW,341,7.0,8.0,51,0.00,,,0.00,0,Wunderground v.1.15,2013-04-17 11:15:00,
2013-04-17 04:25:00,48.8,31.9,30.15,NNW,346,7.0,8.0,52,0.00,,,0.00,0,Wunderground v.1.15,2013-04-17 11:25:00,
2013-04-17 04:35:00,48.8,31.9,30.15,NNW,333,8.0,8.0,52,0.00,,,0.00,0,Wunderground v.1.15,2013-04-17 11:35:00,
2013-04-17 04:38:00,49.0,31.6,30.15,NW,315,7.0,7.0,51,0.00,,,0.00,0,Wunderground v.1.15,2013-04-17 11:38:00,
2013-04-17 04:40:00,48.7,31.8,30.16,North,360,8.0,8.0,52,0.00,,,0.00,0,Wunderground v.1.15,2013-04-17 11:40:00,
2013-04-17 04:48:00,48.7,31.8,30.16,NNW,337,7.0,7.0,52,0.00,,,0.00,0,Wunderground v.1.15,2013-04-17 11:48:00,
2013-04-17 05:00:00,48.1,32.2,30.16,NNW,348,7.0,7.0,54,0.00,,,0.00,0,Wunderground v.1.15,2013-04-17 12:00:00,
2013-04-17 05:03:00,48.7,31.8,30.16,WNW,289,8.0,8.0,52,0.00,,,0.00,0,Wunderground v.1.15,2013-04-17 12:03:00,
2013-04-17 05:08:00,48.6,31.8,30.16,North,355,8.0,8.0,52,0.00,,,0.00,0,Wunderground v.1.15,2013-04-17 12:08:00,
2013-04-17 05:10:00,47.6,32.2,30.17,North,11,7.0,7.0,55,0.00,,,0.00,0,Wunderground v.1.15,2013-04-17 12:10:00,
2013-04-17 05:15:00,47.3,31.9,30.17,North,355,6.0,13.0,55,0.00,,,0.00,0,Wunderground v.1.15,2013-04-17 12:15:00,
2013-04-17 05:23:00,47.8,31.9,30.16,North,355,7.0,7.0,54,0.00,,,0.00,0,Wunderground v.1.15,2013-04-17 12:23:00,
2013-04-17 05:30:00,46.7,32.3,30.17,NNW,333,6.0,6.0,57,0.00,,,0.00,0,Wunderground v.1.15,2013-04-17 12:30:00,
2013-04-17 05:38:00,47.1,32.2,30.17,North,5,6.0,8.0,56,0.00,,,0.00,0,Wunderground v.1.15,2013-04-17 12:38:00,
2013-04-17 05:40:00,46.6,32.6,30.17,NW,325,5.0,5.0,58,0.00,,,0.00,0,Wunderground v.1.15,2013-04-17 12:40:00,
2013-04-17 05:43:00,46.9,32.4,30.17,North,360,6.0,8.0,57,0.00,,,0.00,0,Wunderground v.1.15,2013-04-17 12:43:00,
2013-04-17 05:45:00,46.5,32.5,30.18,NNE,18,5.0,5.0,58,0.00,,,0.00,0,Wunderground v.1.15,2013-04-17 12:45:00,
2013-04-17 05:53:00,46.6,32.6,30.17,North,349,5.0,6.0,58,0.00,,,0.00,0,Wunderground v.1.15,2013-04-17 12:53:00,
2013-04-17 05:55:00,46.4,32.8,30.18,NW,314,3.0,5.0,59,0.00,,,0.00,0,Wunderground v.1.15,2013-04-17 12:55:00,
2013-04-17 06:08:00,46.4,32.8,30.18,North,5,4.0,4.0,59,0.00,,,0.00,0,Wunderground v.1.15,2013-04-17 13:08:00,
2013-04-17 06:18:00,46.2,32.7,30.18,NNW,342,4.0,6.0,59,0.00,,,0.00,0,Wunderground v.1.15,2013-04-17 13:18:00,
2013-04-17 06:23:00,46.0,32.5,30.19,NW,306,4.0,6.0,59,0.00,,,0.00,5,Wunderground v.1.15,2013-04-17 13:23:00,
2013-04-17 06:25:00,45.7,32.6,30.19,WNW,296,6.0,8.0,60,0.00,,,0.00,16,Wunderground v.1.15,2013-04-17 13:25:00,
2013-04-17 06:28:00,45.9,32.8,30.19,NW,315,4.0,4.0,60,0.00,,,0.00,7,Wunderground v.1.15,2013-04-17 13:28:00,
2013-04-17 06:33:00,45.7,32.6,30.19,NW,304,5.0,5.0,60,0.00,,,0.00,11,Wunderground v.1.15,2013-04-17 13:33:00,
2013-04-17 06:38:00,45.7,32.6,30.19,NNW,331,5.0,8.0,60,0.00,,,0.00,12,Wunderground v.1.15,2013-04-17 13:38:00,
2013-04-17 06:40:00,45.8,32.7,30.20,NW,325,6.0,7.0,60,0.00,,,0.00,33,Wunderground v.1.15,2013-04-17 13:40:00,
2013-04-17 06:45:00,46.0,32.9,30.20,NW,320,7.0,7.0,60,0.00,,,0.00,44,Wunderground v.1.15,2013-04-17 13:45:00,
2013-04-17 06:48:00,45.6,32.5,30.19,NW,311,7.0,7.0,60,0.00,,,0.00,19,Wunderground v.1.15,2013-04-17 13:48:00,
2013-04-17 06:53:00,45.7,32.6,30.20,NW,309,6.0,7.0,60,0.00,,,0.00,21,Wunderground v.1.15,2013-04-17 13:53:00,
2013-04-17 07:08:00,46.2,33.1,30.20,NW,304,7.0,7.0,60,0.00,,,0.00,54,Wunderground v.1.15,2013-04-17 14:08:00,
2013-04-17 07:13:00,46.4,32.8,30.20,WNW,302,7.0,7.0,59,0.00,,,0.00,70,Wunderground v.1.15,2013-04-17 14:13:00,
2013-04-17 07:18:00,46.7,33.1,30.20,NNW,340,7.0,7.0,59,0.00,,,0.00,88,Wunderground v.1.15,2013-04-17 14:18:00,
2013-04-17 07:20:00,47.7,33.2,30.21,NW,305,8.0,9.0,57,0.00,,,0.00,171,Wunderground v.1.15,2013-04-17 14:20:00,
2013-04-17 07:23:00,46.9,32.9,30.20,NW,309,7.0,13.0,58,0.00,,,0.00,105,Wunderground v.1.15,2013-04-17 14:23:00,
2013-04-17 07:25:00,48.1,33.1,30.21,NW,317,8.0,9.0,56,0.00,,,0.00,190,Wunderground v.1.15,2013-04-17 14:25:00,
2013-04-17 07:28:00,47.1,33.1,30.20,NW,317,7.0,7.0,58,0.00,,,0.00,127,Wunderground v.1.15,2013-04-17 14:28:00,
2013-04-17 07:33:00,47.4,32.9,30.21,NW,316,8.0,8.0,57,0.00,,,0.00,148,Wunderground v.1.15,2013-04-17 14:33:00,
2013-04-17 07:48:00,48.5,33.1,30.21,NW,315,8.0,8.0,55,0.00,,,0.00,211,Wunderground v.1.15,2013-04-17 14:48:00,
2013-04-17 07:53:00,48.8,33.3,30.21,North,355,7.0,8.0,55,0.00,,,0.00,232,Wunderground v.1.15,2013-04-17 14:53:00,
2013-04-17 07:58:00,49.2,32.8,30.21,WNW,296,7.0,10.0,53,0.00,,,0.00,250,Wunderground v.1.15,2013-04-17 14:58:00,
2013-04-17 08:03:00,49.4,33.0,30.21,NW,309,7.0,10.0,53,0.00,,,0.00,269,Wunderground v.1.15,2013-04-17 15:03:00,
2013-04-17 08:08:00,49.7,33.2,30.22,NW,314,6.0,6.0,53,0.00,,,0.00,288,Wunderground v.1.15,2013-04-17 15:08:00,
2013-04-17 08:13:00,50.1,33.1,30.22,NW,313,6.0,6.0,52,0.00,,,0.00,306,Wunderground v.1.15,2013-04-17 15:13:00,
2013-04-17 08:18:00,50.4,32.9,30.22,NNW,336,6.0,6.0,51,0.00,,,0.00,322,Wunderground v.1.15,2013-04-17 15:18:00,
2013-04-17 08:23:00,50.8,33.3,30.22,NW,318,6.0,7.0,51,0.00,,,0.00,339,Wunderground v.1.15,2013-04-17 15:23:00,
2013-04-17 08:28:00,51.2,33.2,30.22,North,9,7.0,7.0,50,0.00,,,0.00,359,Wunderground v.1.15,2013-04-17 15:28:00,
2013-04-17 08:33:00,51.5,33.5,30.22,NNW,328,7.0,7.0,50,0.00,,,0.00,376,Wunderground v.1.15,2013-04-17 15:33:00,
2013-04-17 08:43:00,53.0,33.8,30.22,WNW,292,7.0,8.0,48,0.00,,,0.00,410,Wunderground v.1.15,2013-04-17 15:43:00,
2013-04-17 08:48:00,53.3,33.6,30.22,NW,308,6.0,6.0,47,0.00,,,0.00,431,Wunderground v.1.15,2013-04-17 15:48:00,
2013-04-17 08:53:00,53.9,34.1,30.22,WNW,298,7.0,10.0,47,0.00,,,0.00,446,Wunderground v.1.15,2013-04-17 15:53:00,
2013-04-17 08:58:00,54.6,33.7,30.22,NW,315,7.0,11.0,45,0.00,,,0.00,464,Wunderground v.1.15,2013-04-17 15:58:00,
2013-04-17 09:03:00,55.4,33.8,30.22,West,280,7.0,11.0,44,0.00,,,0.00,480,Wunderground v.1.15,2013-04-17 16:03:00,
2013-04-17 09:08:00,56.1,33.3,30.22,NW,305,7.0,9.0,42,0.00,,,0.00,499,Wunderground v.1.15,2013-04-17 16:08:00,
2013-04-17 09:13:00,56.7,32.6,30.22,NW,319,7.0,11.0,40,0.00,,,0.00,513,Wunderground v.1.15,2013-04-17 16:13:00,
2013-04-17 09:23:00,57.8,32.3,30.22,NW,320,7.0,7.0,38,0.00,,,0.00,545,Wunderground v.1.15,2013-04-17 16:23:00,
2013-04-17 09:28:00,58.4,31.5,30.22,WNW,303,7.0,7.0,36,0.00,,,0.00,563,Wunderground v.1.15,2013-04-17 16:28:00,
2013-04-17 09:33:00,58.8,31.2,30.22,NNW,343,7.0,7.0,35,0.00,,,0.00,577,Wunderground v.1.15,2013-04-17 16:33:00,
2013-04-17 09:38:00,59.0,31.4,30.22,NNW,331,8.0,8.0,35,0.00,,,0.00,594,Wunderground v.1.15,2013-04-17 16:38:00,
2013-04-17 09:43:00,59.3,30.2,30.22,NNW,342,9.0,16.0,33,0.00,,,0.00,608,Wunderground v.1.15,2013-04-17 16:43:00,
2013-04-17 09:48:00,59.5,29.6,30.22,NNW,327,9.0,9.0,32,0.00,,,0.00,624,Wunderground v.1.15,2013-04-17 16:48:00,
2013-04-17 09:53:00,59.9,29.2,30.22,NNW,334,9.0,9.0,31,0.00,,,0.00,640,Wunderground v.1.15,2013-04-17 16:53:00,
2013-04-17 09:58:00,60.3,27.0,30.22,NNW,338,9.0,9.0,28,0.00,,,0.00,659,Wunderground v.1.15,2013-04-17 16:58:00,
2013-04-17 10:03:00,60.5,27.2,30.23,WNW,296,10.0,10.0,28,0.00,,,0.00,671,Wunderground v.1.15,2013-04-17 17:03:00,
2013-04-17 10:08:00,60.6,26.4,30.23,NNE,17,10.0,11.0,27,0.00,,,0.00,684,Wunderground v.1.15,2013-04-17 17:08:00,
2013-04-17 10:13:00,60.8,26.6,30.22,NNW,336,10.0,11.0,27,0.00,,,0.00,701,Wunderground v.1.15,2013-04-17 17:13:00,
2013-04-17 10:18:00,61.1,25.0,30.23,NNW,347,9.0,11.0,25,0.00,,,0.00,714,Wunderground v.1.15,2013-04-17 17:18:00,
2013-04-17 10:28:00,60.9,25.7,30.23,North,355,10.0,10.0,26,0.00,,,0.00,737,Wunderground v.1.15,2013-04-17 17:28:00,
2013-04-17 10:33:00,61.8,25.6,30.23,NW,310,9.0,10.0,25,0.00,,,0.00,752,Wunderground v.1.15,2013-04-17 17:33:00,
2013-04-17 10:38:00,61.6,25.4,30.22,NNW,340,10.0,10.0,25,0.00,,,0.00,761,Wunderground v.1.15,2013-04-17 17:38:00,
2013-04-17 10:43:00,62.4,25.1,30.22,North,5,10.0,16.0,24,0.00,,,0.00,777,Wunderground v.1.15,2013-04-17 17:43:00,
2013-04-17 10:48:00,62.8,24.4,30.22,NNW,328,9.0,10.0,23,0.00,,,0.00,788,Wunderground v.1.15,2013-04-17 17:48:00,
2013-04-17 10:53:00,62.7,23.3,30.22,NNW,342,11.0,11.0,22,0.00,,,0.00,802,Wunderground v.1.15,2013-04-17 17:53:00,
2013-04-17 10:58:00,63.1,25.7,30.22,North,355,10.0,12.0,24,0.00,,,0.00,803,Wunderground v.1.15,2013-04-17 17:58:00,
2013-04-17 11:08:00,63.9,25.3,30.22,West,279,10.0,10.0,23,0.00,,,0.00,819,Wunderground v.1.15,2013-04-17 18:08:00,
2013-04-17 11:13:00,64.0,24.4,30.22,NW,315,10.0,10.0,22,0.00,,,0.00,846,Wunderground v.1.15,2013-04-17 18:13:00,
2013-04-17 11:18:00,63.6,22.9,30.22,NNW,345,11.0,11.0,21,0.00,,,0.00,856,Wunderground v.1.15,2013-04-17 18:18:00,
2013-04-17 11:28:00,64.2,23.4,30.22,NW,311,10.0,10.0,21,0.00,,,0.00,874,Wunderground v.1.15,2013-04-17 18:28:00,
2013-04-17 11:33:00,64.5,22.5,30.22,NNW,343,10.0,12.0,20,0.00,,,0.00,879,Wunderground v.1.15,2013-04-17 18:33:00,
2013-04-17 11:38:00,64.1,23.3,30.23,WNW,286,10.0,10.0,21,0.00,,,0.00,888,Wunderground v.1.15,2013-04-17 18:38:00,
2013-04-17 11:48:00,64.6,23.7,30.22,NW,310,10.0,10.0,21,0.00,,,0.00,902,Wunderground v.1.15,2013-04-17 18:48:00,
2013-04-17 11:53:00,64.9,22.8,30.22,NNE,15,10.0,12.0,20,0.00,,,0.00,911,Wunderground v.1.15,2013-04-17 18:53:00,
2013-04-17 11:58:00,64.4,21.2,30.22,NNE,21,10.0,10.0,19,0.00,,,0.00,914,Wunderground v.1.15,2013-04-17 18:58:00,
2013-04-17 12:08:00,64.9,21.6,30.22,NE,56,9.0,9.0,19,0.00,,,0.00,925,Wunderground v.1.15,2013-04-17 19:08:00,
2013-04-17 12:13:00,65.6,22.2,30.22,NNW,347,8.0,15.0,19,0.00,,,0.00,926,Wunderground v.1.15,2013-04-17 19:13:00,
2013-04-17 12:18:00,65.9,22.4,30.22,WNW,302,9.0,10.0,19,0.00,,,0.00,933,Wunderground v.1.15,2013-04-17 19:18:00,
2013-04-17 12:23:00,65.8,22.3,30.22,NW,323,9.0,10.0,19,0.00,,,0.00,937,Wunderground v.1.15,2013-04-17 19:23:00,
2013-04-17 12:28:00,66.2,22.7,30.22,NW,321,9.0,13.0,19,0.00,,,0.00,940,Wunderground v.1.15,2013-04-17 19:28:00,
2013-04-17 12:33:00,66.1,22.6,30.22,North,350,10.0,17.0,19,0.00,,,0.00,944,Wunderground v.1.15,2013-04-17 19:33:00,
2013-04-17 12:43:00,66.6,23.0,30.21,NNW,343,9.0,16.0,19,0.00,,,0.00,953,Wunderground v.1.15,2013-04-17 19:43:00,
2013-04-17 12:53:00,66.7,23.1,30.22,NW,307,9.0,9.0,19,0.00,,,0.00,953,Wunderground v.1.15,2013-04-17 19:53:00,
2013-04-17 13:03:00,67.0,23.3,30.20,NNW,342,9.0,9.0,19,0.00,,,0.00,954,Wunderground v.1.15,2013-04-17 20:03:00,
2013-04-17 13:08:00,67.1,22.1,30.21,NNW,346,9.0,9.0,18,0.00,,,0.00,960,Wunderground v.1.15,2013-04-17 20:08:00,
2013-04-17 13:13:00,67.2,23.5,30.20,NW,307,9.0,9.0,19,0.00,,,0.00,958,Wunderground v.1.15,2013-04-17 20:13:00,
2013-04-17 13:18:00,67.5,22.5,30.20,NE,40,9.0,10.0,18,0.00,,,0.00,953,Wunderground v.1.15,2013-04-17 20:18:00,
2013-04-17 13:23:00,67.8,22.7,30.20,NNW,344,9.0,10.0,18,0.00,,,0.00,954,Wunderground v.1.15,2013-04-17 20:23:00,
2013-04-17 13:28:00,67.5,22.5,30.20,NNW,346,9.0,9.0,18,0.00,,,0.00,951,Wunderground v.1.15,2013-04-17 20:28:00,
2013-04-17 13:33:00,68.3,24.4,30.20,NW,326,8.0,13.0,19,0.00,,,0.00,949,Wunderground v.1.15,2013-04-17 20:33:00,
2013-04-17 13:38:00,68.2,23.0,30.20,North,5,8.0,8.0,18,0.00,,,0.00,947,Wunderground v.1.15,2013-04-17 20:38:00,
2013-04-17 13:48:00,67.8,21.4,30.20,NNW,348,9.0,12.0,17,0.00,,,0.00,939,Wunderground v.1.15,2013-04-17 20:48:00,
2013-04-17 13:53:00,68.2,24.3,30.19,NW,307,9.0,12.0,19,0.00,,,0.00,939,Wunderground v.1.15,2013-04-17 20:53:00,
2013-04-17 13:58:00,68.5,23.3,30.19,WNW,294,9.0,15.0,18,0.00,,,0.00,933,Wunderground v.1.15,2013-04-17 20:58:00,
2013-04-17 14:03:00,69.0,23.7,30.19,NW,306,9.0,15.0,18,0.00,,,0.00,926,Wunderground v.1.15,2013-04-17 21:03:00,
2013-04-17 14:13:00,69.2,23.9,30.19,North,360,8.0,9.0,18,0.00,,,0.00,918,Wunderground v.1.15,2013-04-17 21:13:00,
2013-04-17 14:18:00,69.4,24.0,30.19,WNW,302,8.0,8.0,18,0.00,,,0.00,911,Wunderground v.1.15,2013-04-17 21:18:00,
2013-04-17 14:23:00,69.6,24.2,30.18,NNW,348,8.0,12.0,18,0.00,,,0.00,904,Wunderground v.1.15,2013-04-17 21:23:00,
2013-04-17 14:28:00,69.7,24.3,30.18,NNW,348,9.0,15.0,18,0.00,,,0.00,900,Wunderground v.1.15,2013-04-17 21:28:00,
2013-04-17 14:38:00,68.9,23.6,30.18,NNW,334,11.0,12.0,18,0.00,,,0.00,886,Wunderground v.1.15,2013-04-17 21:38:00,
2013-04-17 14:43:00,69.4,24.0,30.18,NW,318,11.0,12.0,18,0.00,,,0.00,881,Wunderground v.1.15,2013-04-17 21:43:00,
2013-04-17 14:48:00,69.5,24.1,30.18,North,360,11.0,14.0,18,0.00,,,0.00,870,Wunderground v.1.15,2013-04-17 21:48:00,
2013-04-17 14:53:00,69.5,22.7,30.17,WNW,303,10.0,14.0,17,0.00,,,0.00,865,Wunderground v.1.15,2013-04-17 21:53:00,
2013-04-17 14:58:00,70.0,24.5,30.18,NNE,21,9.0,17.0,18,0.00,,,0.00,851,Wunderground v.1.15,2013-04-17 21:58:00,
2013-04-17 15:03:00,70.1,24.6,30.17,NW,319,9.0,17.0,18,0.00,,,0.00,842,Wunderground v.1.15,2013-04-17 22:03:00,
2013-04-17 15:08:00,70.6,23.6,30.17,NNW,346,9.0,9.0,17,0.00,,,0.00,831,Wunderground v.1.15,2013-04-17 22:08:00,
2013-04-17 15:13:00,70.1,23.2,30.17,NW,309,9.0,9.0,17,0.00,,,0.00,826,Wunderground v.1.15,2013-04-17 22:13:00,
2013-04-17 15:18:00,70.1,23.2,30.17,NW,321,9.0,11.0,17,0.00,,,0.00,816,Wunderground v.1.15,2013-04-17 22:18:00,
2013-04-17 15:23:00,69.8,23.0,30.17,North,350,9.0,11.0,17,0.00,,,0.00,803,Wunderground v.1.15,2013-04-17 22:23:00,
2013-04-17 15:28:00,70.2,24.7,30.17,North,5,9.0,9.0,18,0.00,,,0.00,788,Wunderground v.1.15,2013-04-17 22:28:00,
2013-04-17 15:33:00,69.9,23.1,30.17,NNW,335,9.0,9.0,17,0.00,,,0.00,773,Wunderground v.1.15,2013-04-17 22:33:00,
2013-04-17 15:38:00,70.3,23.4,30.17,WNW,303,8.0,8.0,17,0.00,,,0.00,765,Wunderground v.1.15,2013-04-17 22:38:00,
2013-04-17 15:43:00,71.3,24.2,30.17,NNW,340,7.0,10.0,17,0.00,,,0.00,751,Wunderground v.1.15,2013-04-17 22:43:00,
2013-04-17 15:48:00,70.6,25.0,30.17,North,355,7.0,9.0,18,0.00,,,0.00,744,Wunderground v.1.15,2013-04-17 22:48:00,
2013-04-17 15:58:00,71.2,24.1,30.16,NNW,333,6.0,7.0,17,0.00,,,0.00,714,Wunderground v.1.15,2013-04-17 22:58:00,
2013-04-17 16:03:00,70.9,23.9,30.16,NW,312,7.0,7.0,17,0.00,,,0.00,698,Wunderground v.1.15,2013-04-17 23:03:00,
2013-04-17 16:13:00,71.0,24.0,30.16,WNW,295,8.0,11.0,17,0.00,,,0.00,671,Wunderground v.1.15,2013-04-17 23:13:00,
2013-04-17 16:18:00,71.3,22.7,30.16,NW,323,8.0,8.0,16,0.00,,,0.00,656,Wunderground v.1.15,2013-04-17 23:18:00,
2013-04-17 16:23:00,71.7,24.5,30.16,WNW,286,7.0,12.0,17,0.00,,,0.00,642,Wunderground v.1.15,2013-04-17 23:23:00,
2013-04-17 16:28:00,71.6,23.0,30.15,WNW,284,7.0,7.0,16,0.00,,,0.00,624,Wunderground v.1.15,2013-04-17 23:28:00,
2013-04-17 16:33:00,71.7,24.5,30.15,NNW,328,6.0,7.0,17,0.00,,,0.00,606,Wunderground v.1.15,2013-04-17 23:33:00,
2013-04-17 16:38:00,71.3,24.2,30.15,NNE,12,6.0,6.0,17,0.00,,,0.00,596,Wunderground v.1.15,2013-04-17 23:38:00,
2013-04-17 16:48:00,71.4,24.3,30.15,NW,304,7.0,8.0,17,0.00,,,0.00,563,Wunderground v.1.15,2013-04-17 23:48:00,
2013-04-17 16:53:00,71.0,24.0,30.15,NW,306,8.0,8.0,17,0.00,,,0.00,548,Wunderground v.1.15,2013-04-17 23:53:00,
2013-04-17 16:58:00,71.3,22.7,30.15,NNW,345,8.0,10.0,16,0.00,,,0.00,533,Wunderground v.1.15,2013-04-17 23:58:00,
2013-04-17 17:03:00,71.3,24.2,30.14,NW,324,8.0,10.0,17,0.00,,,0.00,513,Wunderground v.1.15,2013-04-18 00:03:00,
2013-04-17 17:08:00,71.3,24.2,30.14,NNW,336,8.0,8.0,17,0.00,,,0.00,499,Wunderground v.1.15,2013-04-18 00:08:00,
2013-04-17 17:13:00,71.1,22.6,30.14,NNW,340,7.0,8.0,16,0.00,,,0.00,480,Wunderground v.1.15,2013-04-18 00:13:00,
2013-04-17 17:18:00,70.8,22.3,30.14,North,5,7.0,8.0,16,0.00,,,0.00,466,Wunderground v.1.15,2013-04-18 00:18:00,
2013-04-17 17:23:00,70.6,23.6,30.14,WNW,282,7.0,8.0,17,0.00,,,0.00,446,Wunderground v.1.15,2013-04-18 00:23:00,
2013-04-17 17:28:00,71.1,24.0,30.14,West,279,7.0,9.0,17,0.00,,,0.00,432,Wunderground v.1.15,2013-04-18 00:28:00,
2013-04-17 17:38:00,70.8,23.8,30.14,WNW,300,8.0,10.0,17,0.00,,,0.00,397,Wunderground v.1.15,2013-04-18 00:38:00,
2013-04-17 17:43:00,71.0,24.0,30.14,WNW,298,7.0,10.0,17,0.00,,,0.00,378,Wunderground v.1.15,2013-04-18 00:43:00,
2013-04-17 17:48:00,71.0,24.0,30.15,NNW,339,7.0,8.0,17,0.00,,,0.00,359,Wunderground v.1.15,2013-04-18 00:48:00,
2013-04-17 17:53:00,70.4,24.8,30.14,North,351,7.0,9.0,18,0.00,,,0.00,339,Wunderground v.1.15,2013-04-18 00:53:00,
2013-04-17 18:03:00,70.5,23.5,30.14,WNW,300,7.0,7.0,17,0.00,,,0.00,304,Wunderground v.1.15,2013-04-18 01:03:00,
2013-04-17 18:08:00,70.6,23.6,30.14,WNW,302,6.0,10.0,17,0.00,,,0.00,287,Wunderground v.1.15,2013-04-18 01:08:00,
2013-04-17 18:13:00,70.4,23.5,30.14,NNW,335,7.0,10.0,17,0.00,,,0.00,267,Wunderground v.1.15,2013-04-18 01:13:00,
2013-04-17 18:23:00,70.1,23.2,30.14,North,5,7.0,9.0,17,0.00,,,0.00,223,Wunderground v.1.15,2013-04-18 01:23:00,
2013-04-17 18:33:00,70.0,24.5,30.14,North,5,6.0,10.0,18,0.00,,,0.00,183,Wunderground v.1.15,2013-04-18 01:33:00,
2013-04-17 18:38:00,70.0,24.5,30.15,NW,306,6.0,6.0,18,0.00,,,0.00,162,Wunderground v.1.15,2013-04-18 01:38:00,
2013-04-17 18:43:00,69.9,25.7,30.15,NNW,332,6.0,12.0,19,0.00,,,0.00,142,Wunderground v.1.15,2013-04-18 01:43:00,
2013-04-17 18:48:00,69.7,24.3,30.15,NNW,327,7.0,7.0,18,0.00,,,0.00,121,Wunderground v.1.15,2013-04-18 01:48:00,
2013-04-17 18:53:00,69.5,25.4,30.15,NNW,338,7.0,7.0,19,0.00,,,0.00,102,Wunderground v.1.15,2013-04-18 01:53:00,
2013-04-17 18:58:00,69.4,24.0,30.15,NW,324,6.0,6.0,18,0.00,,,0.00,84,Wunderground v.1.15,2013-04-18 01:58:00,
2013-04-17 19:03:00,69.2,25.1,30.15,NNW,339,6.0,8.0,19,0.00,,,0.00,69,Wunderground v.1.15,2013-04-18 02:03:00,
2013-04-17 19:08:00,69.0,25.0,30.15,NW,310,7.0,10.0,19,0.00,,,0.00,58,Wunderground v.1.15,2013-04-18 02:08:00,
2013-04-17 19:13:00,68.8,24.8,30.15,NNW,340,7.0,10.0,19,0.00,,,0.00,44,Wunderground v.1.15,2013-04-18 02:13:00,
2013-04-17 19:18:00,68.6,24.7,30.15,NNW,348,6.0,6.0,19,0.00,,,0.00,26,Wunderground v.1.15,2013-04-18 02:18:00,
2013-04-17 19:28:00,68.2,24.3,30.14,NNW,346,4.0,8.0,19,0.00,,,0.00,18,Wunderground v.1.15,2013-04-18 02:28:00,
2013-04-17 19:33:00,67.9,25.3,30.14,NW,308,4.0,8.0,20,0.00,,,0.00,14,Wunderground v.1.15,2013-04-18 02:33:00,
2013-04-17 19:38:00,67.6,25.1,30.14,NW,313,4.0,5.0,20,0.00,,,0.00,11,Wunderground v.1.15,2013-04-18 02:38:00,
2013-04-17 19:43:00,67.3,24.8,30.14,NW,315,4.0,5.0,20,0.00,,,0.00,7,Wunderground v.1.15,2013-04-18 02:43:00,
2013-04-17 19:53:00,66.9,25.7,30.14,NNW,331,3.0,5.0,21,0.00,,,0.00,0,Wunderground v.1.15,2013-04-18 02:53:00,
2013-04-17 20:03:00,66.5,25.3,30.15,NW,304,3.0,5.0,21,0.00,,,0.00,0,Wunderground v.1.15,2013-04-18 03:03:00,
2013-04-17 20:13:00,65.8,25.9,30.15,WNW,299,3.0,5.0,22,0.00,,,0.00,0,Wunderground v.1.15,2013-04-18 03:13:00,
2013-04-17 20:23:00,65.3,25.4,30.15,NW,309,1.0,5.0,22,0.00,,,0.00,0,Wunderground v.1.15,2013-04-18 03:23:00,
2013-04-17 20:33:00,65.0,26.3,30.16,NW,309,1.0,5.0,23,0.00,,,0.00,0,Wunderground v.1.15,2013-04-18 03:33:00,
2013-04-17 20:38:00,64.9,26.2,30.16,NW,308,2.0,2.0,23,0.00,,,0.00,0,Wunderground v.1.15,2013-04-18 03:38:00,
2013-04-17 20:43:00,64.6,25.9,30.16,NW,308,1.0,5.0,23,0.00,,,0.00,0,Wunderground v.1.15,2013-04-18 03:43:00,
2013-04-17 20:45:00,63.9,26.4,30.17,NW,308,0.0,5.0,24,0.00,,,0.00,0,Wunderground v.1.15,2013-04-18 03:45:00,
2013-04-17 20:50:00,63.8,27.3,30.17,NW,308,0.0,5.0,25,0.00,,,0.00,0,Wunderground v.1.15,2013-04-18 03:50:00,
2013-04-17 20:53:00,64.1,26.5,30.16,NW,308,0.0,5.0,24,0.00,,,0.00,0,Wunderground v.1.15,2013-04-18 03:53:00,
2013-04-17 20:55:00,63.6,27.1,30.17,NW,308,0.0,5.0,25,0.00,,,0.00,0,Wunderground v.1.15,2013-04-18 03:55:00,
2013-04-17 20:58:00,64.0,26.4,30.16,NW,308,1.0,1.0,24,0.00,,,0.00,0,Wunderground v.1.15,2013-04-18 03:58:00,
2013-04-17 21:00:00,63.4,26.9,30.17,NW,308,0.0,5.0,25,0.00,,,0.00,0,Wunderground v.1.15,2013-04-18 04:00:00,
2013-04-17 21:05:00,63.2,27.7,30.17,NW,308,0.0,5.0,26,0.00,,,0.00,0,Wunderground v.1.15,2013-04-18 04:05:00,
2013-04-17 21:10:00,63.1,27.6,30.17,NW,321,0.0,5.0,26,0.00,,,0.00,0,Wunderground v.1.15,2013-04-18 04:10:00,
2013-04-17 21:15:00,63.4,27.9,30.17,NW,322,1.0,5.0,26,0.00,,,0.00,0,Wunderground v.1.15,2013-04-18 04:15:00,
2013-04-17 21:20:00,63.3,26.8,30.17,NNW,327,1.0,1.0,25,0.00,,,0.00,0,Wunderground v.1.15,2013-04-18 04:20:00,
2013-04-17 21:25:00,63.1,27.6,30.17,NNW,333,1.0,2.0,26,0.00,,,0.00,0,Wunderground v.1.15,2013-04-18 04:25:00,
2013-04-17 21:30:00,63.0,27.5,30.17,North,11,1.0,5.0,26,0.00,,,0.00,0,Wunderground v.1.15,2013-04-18 04:30:00,
2013-04-17 21:35:00,63.1,26.7,30.18,North,5,2.0,5.0,25,0.00,,,0.00,0,Wunderground v.1.15,2013-04-18 04:35:00,
2013-04-17 21:40:00,63.3,26.8,30.18,NNW,344,3.0,3.0,25,0.00,,,0.00,0,Wunderground v.1.15,2013-04-18 04:40:00,
2013-04-17 21:45:00,63.3,26.8,30.18,NNW,343,4.0,4.0,25,0.00,,,0.00,0,Wunderground v.1.15,2013-04-18 04:45:00,
2013-04-17 21:50:00,63.1,27.6,30.18,North,9,3.0,3.0,26,0.00,,,0.00,0,Wunderground v.1.15,2013-04-18 04:50:00,
2013-04-17 21:55:00,62.6,27.2,30.18,NW,326,2.0,5.0,26,0.00,,,0.00,0,Wunderground v.1.15,2013-04-18 04:55:00,
2013-04-17 22:00:00,62.1,26.8,30.18,NW,325,1.0,1.0,26,0.00,,,0.00,0,Wunderground v.1.15,2013-04-18 05:00:00,
2013-04-17 22:05:00,62.1,27.7,30.18,NW,325,0.0,5.0,27,0.00,,,0.00,0,Wunderground v.1.15,2013-04-18 05:05:00,
2013-04-17 22:10:00,62.2,27.8,30.18,NNW,336,1.0,5.0,27,0.00,,,0.00,0,Wunderground v.1.15,2013-04-18 05:10:00,
2013-04-17 22:15:00,62.3,27.9,30.18,North,355,1.0,5.0,27,0.00,,,0.00,0,Wunderground v.1.15,2013-04-18 05:15:00,
2013-04-17 22:20:00,61.9,27.5,30.18,North,351,1.0,5.0,27,0.00,,,0.00,0,Wunderground v.1.15,2013-04-18 05:20:00,
2013-04-17 22:25:00,61.3,27.9,30.18,NNW,327,1.0,5.0,28,0.00,,,0.00,0,Wunderground v.1.15,2013-04-18 05:25:00,
2013-04-17 22:30:00,60.8,27.5,30.18,NNW,327,1.0,1.0,28,0.00,,,0.00,0,Wunderground v.1.15,2013-04-18 05:30:00,
2013-04-17 22:35:00,60.6,28.1,30.18,NNW,327,1.0,5.0,29,0.00,,,0.00,0,Wunderground v.1.15,2013-04-18 05:35:00,
2013-04-17 22:40:00,60.3,27.9,30.18,NNW,327,0.0,5.0,29,0.00,,,0.00,0,Wunderground v.1.15,2013-04-18 05:40:00,
2013-04-17 22:45:00,60.1,28.5,30.18,NNW,327,0.0,5.0,30,0.00,,,0.00,0,Wunderground v.1.15,2013-04-18 05:45:00,
2013-04-17 22:50:00,60.0,27.6,30.18,NNW,327,0.0,5.0,29,0.00,,,0.00,0,Wunderground v.1.15,2013-04-18 05:50:00,
2013-04-17 22:55:00,59.7,28.2,30.18,NNW,327,1.0,5.0,30,0.00,,,0.00,0,Wunderground v.1.15,2013-04-18 05:55:00,
2013-04-17 23:00:00,59.8,28.3,30.18,NNW,327,0.0,5.0,30,0.00,,,0.00,0,Wunderground v.1.15,2013-04-18 06:00:00,
2013-04-17 23:05:00,59.6,28.1,30.18,NNW,327,0.0,5.0,30,0.00,,,0.00,0,Wunderground v.1.15,2013-04-18 06:05:00,
2013-04-17 23:10:00,59.6,28.9,30.18,NNW,327,0.0,5.0,31,0.00,,,0.00,0,Wunderground v.1.15,2013-04-18 06:10:00,
2013-04-17 23:15:00,59.6,28.9,30.18,NNW,327,1.0,5.0,31,0.00,,,0.00,0,Wunderground v.1.15,2013-04-18 06:15:00,
2013-04-17 23:20:00,59.5,28.8,30.18,NNW,327,1.0,5.0,31,0.00,,,0.00,0,Wunderground v.1.15,2013-04-18 06:20:00,
2013-04-17 23:25:00,59.4,28.7,30.18,NNW,327,1.0,5.0,31,0.00,,,0.00,0,Wunderground v.1.15,2013-04-18 06:25:00,
2013-04-17 23:30:00,59.3,28.6,30.18,NW,313,1.0,5.0,31,0.00,,,0.00,0,Wunderground v.1.15,2013-04-18 06:30:00,
2013-04-17 23:35:00,58.9,29.1,30.18,NW,313,2.0,5.0,32,0.00,,,0.00,0,Wunderground v.1.15,2013-04-18 06:35:00,
2013-04-17 23:40:00,58.6,28.8,30.18,NW,313,1.0,5.0,32,0.00,,,0.00,0,Wunderground v.1.15,2013-04-18 06:40:00,
2013-04-17 23:45:00,58.6,28.8,30.18,NW,313,1.0,5.0,32,0.00,,,0.00,0,Wunderground v.1.15,2013-04-18 06:45:00,
2013-04-17 23:50:00,58.6,28.8,30.18,NW,312,2.0,6.0,32,0.00,,,0.00,0,Wunderground v.1.15,2013-04-18 06:50:00,
2013-04-17 23:55:00,58.4,28.6,30.18,NW,314,3.0,6.0,32,0.00,,,0.00,0,Wunderground v.1.15,2013-04-18 06:55:00,